Eek, Alaska
Current Conditions -  °F | °C
As of 3:56 PM on Monday 22 Dec 2014 (Local Time) from PANA Reporting Station
Light Snow Light Snow  
Wind Chill: -4°   Ceiling: 2600
Heat Index:   Visibility: 9mi
Dew Point:   Wind: 9mph
Humidity: 92%   Direction: 10°N
Pressure: 29.95"   Gusts: NA
Location:  60.22°N, 162.03°W
Report Text: PANA 230056Z AUTO 01008KT 9SM -SN OVC026 M13/M14 A2995 RMK AO2 SLP141 P0000 T11281139 FZRANO
Loading
Personal Weather Stations






























Interactive Weather Map New forecast layout! Learn more

10-Day Weather Forecast

Advertisements
Track Severe Weather on mobile